sensor_id;sensor_type;location;lat;lon;timestamp;temperature;humidity
44047;DHT22;29713;-33.888;151.150;2023-06-14T00:02:00;15.80;99.90
44047;DHT22;29713;-33.888;151.150;2023-06-14T00:04:27;16.00;99.90
44047;DHT22;29713;-33.888;151.150;2023-06-14T00:06:55;16.10;99.90
44047;DHT22;29713;-33.888;151.150;2023-06-14T00:09:23;16.20;99.90
44047;DHT22;29713;-33.888;151.150;2023-06-14T00:11:51;16.30;99.90
44047;DHT22;29713;-33.888;151.150;2023-06-14T00:14:18;16.30;99.90
44047;DHT22;29713;-33.888;151.150;2023-06-14T00:16:45;16.30;99.90
44047;DHT22;29713;-33.888;151.150;2023-06-14T00:19:14;16.40;99.90
44047;DHT22;29713;-33.888;151.150;2023-06-14T00:21:42;16.50;99.90
44047;DHT22;29713;-33.888;151.150;2023-06-14T00:24:09;16.50;99.90
44047;DHT22;29713;-33.888;151.150;2023-06-14T00:26:37;16.50;99.90
44047;DHT22;29713;-33.888;151.150;2023-06-14T00:29:04;16.60;99.90
44047;DHT22;29713;-33.888;151.150;2023-06-14T00:31:31;16.60;99.90
44047;DHT22;29713;-33.888;151.150;2023-06-14T00:33:59;16.70;99.90
44047;DHT22;29713;-33.888;151.150;2023-06-14T00:36:26;16.70;99.90
44047;DHT22;29713;-33.888;151.150;2023-06-14T00:38:54;16.80;99.90
44047;DHT22;29713;-33.888;151.150;2023-06-14T00:41:21;16.80;99.90
44047;DHT22;29713;-33.888;151.150;2023-06-14T00:43:48;16.90;99.90
44047;DHT22;29713;-33.888;151.150;2023-06-14T00:46:16;16.90;99.90
44047;DHT22;29713;-33.888;151.150;2023-06-14T00:48:43;17.00;99.90
44047;DHT22;29713;-33.888;151.150;2023-06-14T00:51:11;17.10;99.90
44047;DHT22;29713;-33.888;151.150;2023-06-14T00:53:39;17.20;99.90
44047;DHT22;29713;-33.888;151.150;2023-06-14T00:56:07;17.30;99.90
44047;DHT22;29713;-33.888;151.150;2023-06-14T00:58:34;17.30;99.90
44047;DHT22;29713;-33.888;151.150;2023-06-14T01:01:02;17.40;99.90
44047;DHT22;29713;-33.888;151.150;2023-06-14T01:03:29;17.40;99.90
44047;DHT22;29713;-33.888;151.150;2023-06-14T01:14:23;17.60;99.90
44047;DHT22;29713;-33.888;151.150;2023-06-14T01:16:51;17.70;99.90
44047;DHT22;29713;-33.888;151.150;2023-06-14T01:19:20;17.80;99.90
44047;DHT22;29713;-33.888;151.150;2023-06-14T01:21:49;17.90;99.90
44047;DHT22;29713;-33.888;151.150;2023-06-14T01:24:17;18.10;99.90
44047;DHT22;29713;-33.888;151.150;2023-06-14T01:26:54;18.20;99.90
44047;DHT22;29713;-33.888;151.150;2023-06-14T01:29:26;18.30;99.90
44047;DHT22;29713;-33.888;151.150;2023-06-14T01:31:54;18.50;99.90
44047;DHT22;29713;-33.888;151.150;2023-06-14T01:34:22;18.50;99.90
44047;DHT22;29713;-33.888;151.150;2023-06-14T01:36:50;18.50;99.90
44047;DHT22;29713;-33.888;151.150;2023-06-14T01:39:19;18.40;99.90
44047;DHT22;29713;-33.888;151.150;2023-06-14T01:41:47;18.40;99.90
44047;DHT22;29713;-33.888;151.150;2023-06-14T01:44:18;18.50;99.90
44047;DHT22;29713;-33.888;151.150;2023-06-14T01:46:46;18.50;99.90
44047;DHT22;29713;-33.888;151.150;2023-06-14T01:49:14;18.60;99.90
44047;DHT22;29713;-33.888;151.150;2023-06-14T01:51:41;18.60;98.90
44047;DHT22;29713;-33.888;151.150;2023-06-14T01:54:08;18.70;99.50
44047;DHT22;29713;-33.888;151.150;2023-06-14T01:56:36;18.80;98.80
44047;DHT22;29713;-33.888;151.150;2023-06-14T01:59:03;18.90;98.60
44047;DHT22;29713;-33.888;151.150;2023-06-14T02:01:30;19.00;98.20
44047;DHT22;29713;-33.888;151.150;2023-06-14T02:04:00;19.10;97.40
44047;DHT22;29713;-33.888;151.150;2023-06-14T02:06:28;19.20;97.40
44047;DHT22;29713;-33.888;151.150;2023-06-14T02:08:55;19.20;96.50
44047;DHT22;29713;-33.888;151.150;2023-06-14T02:11:25;19.20;96.30
44047;DHT22;29713;-33.888;151.150;2023-06-14T02:13:53;19.20;97.50
44047;DHT22;29713;-33.888;151.150;2023-06-14T02:16:21;19.40;96.00
44047;DHT22;29713;-33.888;151.150;2023-06-14T02:18:49;19.50;95.10
44047;DHT22;29713;-33.888;151.150;2023-06-14T02:21:17;19.50;94.90
44047;DHT22;29713;-33.888;151.150;2023-06-14T02:23:44;19.50;94.30
44047;DHT22;29713;-33.888;151.150;2023-06-14T02:26:12;19.50;93.80
44047;DHT22;29713;-33.888;151.150;2023-06-14T02:28:40;19.50;93.40
44047;DHT22;29713;-33.888;151.150;2023-06-14T02:31:07;19.70;93.50
44047;DHT22;29713;-33.888;151.150;2023-06-14T02:33:34;19.70;92.80
44047;DHT22;29713;-33.888;151.150;2023-06-14T02:36:02;19.80;93.00
44047;DHT22;29713;-33.888;151.150;2023-06-14T02:38:30;19.90;92.80
44047;DHT22;29713;-33.888;151.150;2023-06-14T02:40:57;19.80;92.60
44047;DHT22;29713;-33.888;151.150;2023-06-14T02:43:25;19.90;93.20
44047;DHT22;29713;-33.888;151.150;2023-06-14T02:45:53;20.00;92.50
44047;DHT22;29713;-33.888;151.150;2023-06-14T02:48:20;20.20;92.10
44047;DHT22;29713;-33.888;151.150;2023-06-14T02:50:47;20.10;91.60
44047;DHT22;29713;-33.888;151.150;2023-06-14T02:53:15;20.20;91.60
44047;DHT22;29713;-33.888;151.150;2023-06-14T02:55:44;20.40;91.10
44047;DHT22;29713;-33.888;151.150;2023-06-14T02:58:11;20.40;90.70
44047;DHT22;29713;-33.888;151.150;2023-06-14T03:00:39;20.40;90.40
44047;DHT22;29713;-33.888;151.150;2023-06-14T03:03:07;20.40;90.50
44047;DHT22;29713;-33.888;151.150;2023-06-14T03:05:46;20.40;89.50
44047;DHT22;29713;-33.888;151.150;2023-06-14T03:08:16;20.60;90.30
44047;DHT22;29713;-33.888;151.150;2023-06-14T03:10:48;20.50;88.80
44047;DHT22;29713;-33.888;151.150;2023-06-14T03:13:16;20.50;87.00
44047;DHT22;29713;-33.888;151.150;2023-06-14T03:15:43;20.60;87.20
44047;DHT22;29713;-33.888;151.150;2023-06-14T03:18:11;20.60;86.60
44047;DHT22;29713;-33.888;151.150;2023-06-14T03:20:39;20.60;86.60
44047;DHT22;29713;-33.888;151.150;2023-06-14T03:23:07;20.20;85.80
44047;DHT22;29713;-33.888;151.150;2023-06-14T03:25:34;20.00;86.10
44047;DHT22;29713;-33.888;151.150;2023-06-14T03:28:05;20.20;87.60
44047;DHT22;29713;-33.888;151.150;2023-06-14T03:30:32;20.20;86.30
44047;DHT22;29713;-33.888;151.150;2023-06-14T03:33:00;20.40;84.90
44047;DHT22;29713;-33.888;151.150;2023-06-14T03:35:31;20.40;85.00
44047;DHT22;29713;-33.888;151.150;2023-06-14T03:37:58;20.50;83.90
44047;DHT22;29713;-33.888;151.150;2023-06-14T03:40:26;20.60;84.90
44047;DHT22;29713;-33.888;151.150;2023-06-14T03:42:54;20.80;84.20
44047;DHT22;29713;-33.888;151.150;2023-06-14T03:45:22;20.90;83.80
44047;DHT22;29713;-33.888;151.150;2023-06-14T03:47:49;20.90;83.10
44047;DHT22;29713;-33.888;151.150;2023-06-14T03:50:18;20.80;81.30
44047;DHT22;29713;-33.888;151.150;2023-06-14T03:52:47;20.80;81.80
44047;DHT22;29713;-33.888;151.150;2023-06-14T03:55:15;20.70;82.70
44047;DHT22;29713;-33.888;151.150;2023-06-14T03:57:42;20.70;80.70
44047;DHT22;29713;-33.888;151.150;2023-06-14T04:00:10;20.70;82.30
44047;DHT22;29713;-33.888;151.150;2023-06-14T04:02:39;20.60;80.50
44047;DHT22;29713;-33.888;151.150;2023-06-14T04:05:06;20.50;81.50
44047;DHT22;29713;-33.888;151.150;2023-06-14T04:07:35;20.50;82.30
44047;DHT22;29713;-33.888;151.150;2023-06-14T04:10:16;20.40;81.20
44047;DHT22;29713;-33.888;151.150;2023-06-14T04:12:44;20.30;80.80
44047;DHT22;29713;-33.888;151.150;2023-06-14T04:15:11;20.10;77.70
44047;DHT22;29713;-33.888;151.150;2023-06-14T04:17:40;20.00;78.10
44047;DHT22;29713;-33.888;151.150;2023-06-14T04:20:07;19.90;77.90
44047;DHT22;29713;-33.888;151.150;2023-06-14T04:22:36;19.70;77.90
44047;DHT22;29713;-33.888;151.150;2023-06-14T04:25:03;19.70;77.80
44047;DHT22;29713;-33.888;151.150;2023-06-14T04:27:33;19.60;77.70
44047;DHT22;29713;-33.888;151.150;2023-06-14T04:30:03;19.50;76.90
44047;DHT22;29713;-33.888;151.150;2023-06-14T04:32:31;19.40;77.20
44047;DHT22;29713;-33.888;151.150;2023-06-14T04:35:00;19.30;77.60
44047;DHT22;29713;-33.888;151.150;2023-06-14T04:37:30;19.20;78.30
44047;DHT22;29713;-33.888;151.150;2023-06-14T04:39:57;19.10;77.60
44047;DHT22;29713;-33.888;151.150;2023-06-14T04:42:25;19.00;77.90
44047;DHT22;29713;-33.888;151.150;2023-06-14T04:44:56;18.90;77.60
44047;DHT22;29713;-33.888;151.150;2023-06-14T04:47:24;18.80;77.50
44047;DHT22;29713;-33.888;151.150;2023-06-14T04:49:57;18.70;76.70
44047;DHT22;29713;-33.888;151.150;2023-06-14T04:52:24;18.60;77.80
44047;DHT22;29713;-33.888;151.150;2023-06-14T04:54:53;18.50;78.00
44047;DHT22;29713;-33.888;151.150;2023-06-14T04:57:23;18.40;77.20
44047;DHT22;29713;-33.888;151.150;2023-06-14T04:59:52;18.40;78.30
44047;DHT22;29713;-33.888;151.150;2023-06-14T05:02:25;18.30;78.30
44047;DHT22;29713;-33.888;151.150;2023-06-14T05:04:53;18.30;78.40
44047;DHT22;29713;-33.888;151.150;2023-06-14T05:07:21;18.20;78.20
44047;DHT22;29713;-33.888;151.150;2023-06-14T05:09:50;18.20;79.30
44047;DHT22;29713;-33.888;151.150;2023-06-14T05:12:17;18.20;79.80
44047;DHT22;29713;-33.888;151.150;2023-06-14T05:14:46;18.20;81.00
44047;DHT22;29713;-33.888;151.150;2023-06-14T05:17:13;18.20;80.20
44047;DHT22;29713;-33.888;151.150;2023-06-14T05:19:43;18.20;80.80
44047;DHT22;29713;-33.888;151.150;2023-06-14T05:22:11;18.20;80.40
44047;DHT22;29713;-33.888;151.150;2023-06-14T05:24:38;18.20;80.80
44047;DHT22;29713;-33.888;151.150;2023-06-14T05:27:06;18.10;81.30
44047;DHT22;29713;-33.888;151.150;2023-06-14T05:29:33;18.10;81.70
44047;DHT22;29713;-33.888;151.150;2023-06-14T05:32:00;18.10;79.70
44047;DHT22;29713;-33.888;151.150;2023-06-14T05:34:28;18.00;77.80
44047;DHT22;29713;-33.888;151.150;2023-06-14T05:36:55;18.00;78.50
44047;DHT22;29713;-33.888;151.150;2023-06-14T05:39:23;18.00;78.90
44047;DHT22;29713;-33.888;151.150;2023-06-14T05:41:50;17.90;78.50
44047;DHT22;29713;-33.888;151.150;2023-06-14T05:44:18;17.90;78.30
44047;DHT22;29713;-33.888;151.150;2023-06-14T05:46:45;17.80;79.50
44047;DHT22;29713;-33.888;151.150;2023-06-14T05:49:12;17.80;79.80
44047;DHT22;29713;-33.888;151.150;2023-06-14T05:51:40;17.70;81.30
44047;DHT22;29713;-33.888;151.150;2023-06-14T05:54:07;17.80;81.90
44047;DHT22;29713;-33.888;151.150;2023-06-14T05:56:34;17.70;82.20
44047;DHT22;29713;-33.888;151.150;2023-06-14T05:59:02;17.60;82.40
44047;DHT22;29713;-33.888;151.150;2023-06-14T06:01:29;17.60;82.90
44047;DHT22;29713;-33.888;151.150;2023-06-14T06:03:57;17.60;82.10
44047;DHT22;29713;-33.888;151.150;2023-06-14T06:06:24;17.60;83.00
44047;DHT22;29713;-33.888;151.150;2023-06-14T06:08:51;17.50;83.10
44047;DHT22;29713;-33.888;151.150;2023-06-14T06:11:19;17.50;83.70
44047;DHT22;29713;-33.888;151.150;2023-06-14T06:13:46;17.50;84.10
44047;DHT22;29713;-33.888;151.150;2023-06-14T06:16:14;17.50;84.60
44047;DHT22;29713;-33.888;151.150;2023-06-14T06:18:41;17.40;84.30
44047;DHT22;29713;-33.888;151.150;2023-06-14T06:21:09;17.40;84.90
44047;DHT22;29713;-33.888;151.150;2023-06-14T06:23:36;17.30;86.00
44047;DHT22;29713;-33.888;151.150;2023-06-14T06:26:06;17.20;85.50
44047;DHT22;29713;-33.888;151.150;2023-06-14T06:28:33;17.20;84.80
44047;DHT22;29713;-33.888;151.150;2023-06-14T06:31:01;17.20;85.10
44047;DHT22;29713;-33.888;151.150;2023-06-14T06:33:29;17.10;85.80
44047;DHT22;29713;-33.888;151.150;2023-06-14T06:35:57;17.10;86.60
44047;DHT22;29713;-33.888;151.150;2023-06-14T06:38:24;17.00;86.70
44047;DHT22;29713;-33.888;151.150;2023-06-14T06:40:51;16.90;86.80
44047;DHT22;29713;-33.888;151.150;2023-06-14T06:43:20;16.90;86.60
44047;DHT22;29713;-33.888;151.150;2023-06-14T06:45:48;16.90;87.40
44047;DHT22;29713;-33.888;151.150;2023-06-14T06:48:15;16.80;87.00
44047;DHT22;29713;-33.888;151.150;2023-06-14T06:50:43;16.70;87.10
44047;DHT22;29713;-33.888;151.150;2023-06-14T06:53:10;16.60;86.90
44047;DHT22;29713;-33.888;151.150;2023-06-14T06:55:37;16.60;87.20
44047;DHT22;29713;-33.888;151.150;2023-06-14T06:58:05;16.60;87.70
44047;DHT22;29713;-33.888;151.150;2023-06-14T07:00:35;16.60;88.40
44047;DHT22;29713;-33.888;151.150;2023-06-14T07:03:03;16.50;88.00
44047;DHT22;29713;-33.888;151.150;2023-06-14T07:05:30;16.40;88.20
44047;DHT22;29713;-33.888;151.150;2023-06-14T07:07:58;16.40;88.80
44047;DHT22;29713;-33.888;151.150;2023-06-14T07:10:26;16.40;89.70
44047;DHT22;29713;-33.888;151.150;2023-06-14T07:12:53;16.30;89.80
44047;DHT22;29713;-33.888;151.150;2023-06-14T07:15:21;16.30;90.30
44047;DHT22;29713;-33.888;151.150;2023-06-14T07:17:48;16.20;90.30
44047;DHT22;29713;-33.888;151.150;2023-06-14T07:20:17;16.10;90.50
44047;DHT22;29713;-33.888;151.150;2023-06-14T07:22:44;16.10;90.60
44047;DHT22;29713;-33.888;151.150;2023-06-14T07:25:12;16.10;90.80
44047;DHT22;29713;-33.888;151.150;2023-06-14T07:27:44;16.00;90.80
44047;DHT22;29713;-33.888;151.150;2023-06-14T07:30:12;16.00;91.40
44047;DHT22;29713;-33.888;151.150;2023-06-14T07:32:39;15.90;91.20
44047;DHT22;29713;-33.888;151.150;2023-06-14T07:35:07;15.90;91.60
44047;DHT22;29713;-33.888;151.150;2023-06-14T07:37:35;15.90;91.80
44047;DHT22;29713;-33.888;151.150;2023-06-14T07:40:03;15.80;91.80
44047;DHT22;29713;-33.888;151.150;2023-06-14T07:42:34;15.80;92.00
44047;DHT22;29713;-33.888;151.150;2023-06-14T07:45:03;15.80;91.90
44047;DHT22;29713;-33.888;151.150;2023-06-14T07:47:31;15.80;92.10
44047;DHT22;29713;-33.888;151.150;2023-06-14T07:49:58;15.80;92.70
44047;DHT22;29713;-33.888;151.150;2023-06-14T07:52:26;15.70;93.20
44047;DHT22;29713;-33.888;151.150;2023-06-14T07:54:53;15.70;93.30
44047;DHT22;29713;-33.888;151.150;2023-06-14T07:57:20;15.60;93.40
44047;DHT22;29713;-33.888;151.150;2023-06-14T07:59:48;15.50;93.60
44047;DHT22;29713;-33.888;151.150;2023-06-14T08:02:15;15.50;93.60
44047;DHT22;29713;-33.888;151.150;2023-06-14T08:04:42;15.50;94.00
44047;DHT22;29713;-33.888;151.150;2023-06-14T08:07:10;15.50;94.80
44047;DHT22;29713;-33.888;151.150;2023-06-14T08:09:37;15.50;94.50
44047;DHT22;29713;-33.888;151.150;2023-06-14T08:12:07;15.40;95.30
44047;DHT22;29713;-33.888;151.150;2023-06-14T08:14:36;15.40;95.70
44047;DHT22;29713;-33.888;151.150;2023-06-14T08:17:04;15.40;95.50
44047;DHT22;29713;-33.888;151.150;2023-06-14T08:19:31;15.30;95.70
44047;DHT22;29713;-33.888;151.150;2023-06-14T08:21:58;15.30;96.50
44047;DHT22;29713;-33.888;151.150;2023-06-14T08:24:26;15.20;96.00
44047;DHT22;29713;-33.888;151.150;2023-06-14T08:26:54;15.20;96.40
44047;DHT22;29713;-33.888;151.150;2023-06-14T08:29:22;15.20;97.40
44047;DHT22;29713;-33.888;151.150;2023-06-14T08:31:50;15.10;97.10
44047;DHT22;29713;-33.888;151.150;2023-06-14T08:34:17;15.00;97.60
44047;DHT22;29713;-33.888;151.150;2023-06-14T08:36:44;15.00;97.70
44047;DHT22;29713;-33.888;151.150;2023-06-14T08:39:12;15.00;97.40
44047;DHT22;29713;-33.888;151.150;2023-06-14T08:41:39;15.00;97.60
44047;DHT22;29713;-33.888;151.150;2023-06-14T08:44:07;15.00;97.80
44047;DHT22;29713;-33.888;151.150;2023-06-14T08:46:34;14.90;97.90
44047;DHT22;29713;-33.888;151.150;2023-06-14T08:49:03;14.90;98.20
44047;DHT22;29713;-33.888;151.150;2023-06-14T08:51:33;14.90;98.30
44047;DHT22;29713;-33.888;151.150;2023-06-14T08:54:03;14.90;98.60
44047;DHT22;29713;-33.888;151.150;2023-06-14T08:56:32;14.80;99.00
44047;DHT22;29713;-33.888;151.150;2023-06-14T08:59:01;14.80;98.90
44047;DHT22;29713;-33.888;151.150;2023-06-14T09:01:34;14.80;98.90
44047;DHT22;29713;-33.888;151.150;2023-06-14T09:04:02;14.80;99.30
44047;DHT22;29713;-33.888;151.150;2023-06-14T09:06:32;14.80;99.60
44047;DHT22;29713;-33.888;151.150;2023-06-14T09:09:00;14.80;99.60
44047;DHT22;29713;-33.888;151.150;2023-06-14T09:11:30;14.70;99.70
44047;DHT22;29713;-33.888;151.150;2023-06-14T09:13:58;14.70;99.90
44047;DHT22;29713;-33.888;151.150;2023-06-14T09:16:26;14.60;99.90
44047;DHT22;29713;-33.888;151.150;2023-06-14T09:18:54;14.60;99.90
44047;DHT22;29713;-33.888;151.150;2023-06-14T09:21:21;14.50;99.90
44047;DHT22;29713;-33.888;151.150;2023-06-14T09:23:49;14.50;99.90
44047;DHT22;29713;-33.888;151.150;2023-06-14T09:26:18;14.50;99.90
44047;DHT22;29713;-33.888;151.150;2023-06-14T09:28:50;14.40;99.90
44047;DHT22;29713;-33.888;151.150;2023-06-14T09:31:19;14.50;99.90
44047;DHT22;29713;-33.888;151.150;2023-06-14T09:33:49;14.40;99.90
44047;DHT22;29713;-33.888;151.150;2023-06-14T09:36:18;14.40;99.90
44047;DHT22;29713;-33.888;151.150;2023-06-14T09:38:57;14.40;99.90
44047;DHT22;29713;-33.888;151.150;2023-06-14T09:41:38;14.30;99.90
44047;DHT22;29713;-33.888;151.150;2023-06-14T09:44:07;14.30;99.90
44047;DHT22;29713;-33.888;151.150;2023-06-14T09:46:36;14.30;99.90
44047;DHT22;29713;-33.888;151.150;2023-06-14T09:49:05;14.30;99.90
44047;DHT22;29713;-33.888;151.150;2023-06-14T09:51:32;14.30;99.90
44047;DHT22;29713;-33.888;151.150;2023-06-14T09:54:02;14.30;99.90
44047;DHT22;29713;-33.888;151.150;2023-06-14T09:56:44;14.20;99.90
44047;DHT22;29713;-33.888;151.150;2023-06-14T09:59:13;14.20;99.90
44047;DHT22;29713;-33.888;151.150;2023-06-14T10:01:43;14.20;99.90
44047;DHT22;29713;-33.888;151.150;2023-06-14T10:04:13;14.20;99.90
44047;DHT22;29713;-33.888;151.150;2023-06-14T10:06:45;14.20;99.90
44047;DHT22;29713;-33.888;151.150;2023-06-14T10:09:13;14.10;99.90
44047;DHT22;29713;-33.888;151.150;2023-06-14T10:11:41;14.10;99.90
44047;DHT22;29713;-33.888;151.150;2023-06-14T10:14:11;14.10;99.90
44047;DHT22;29713;-33.888;151.150;2023-06-14T10:22:02;14.00;99.90
44047;DHT22;29713;-33.888;151.150;2023-06-14T10:24:34;14.00;99.90
44047;DHT22;29713;-33.888;151.150;2023-06-14T10:27:02;14.00;99.90
44047;DHT22;29713;-33.888;151.150;2023-06-14T10:29:29;14.00;99.90
44047;DHT22;29713;-33.888;151.150;2023-06-14T10:32:00;13.90;99.90
44047;DHT22;29713;-33.888;151.150;2023-06-14T10:34:31;13.90;99.90
44047;DHT22;29713;-33.888;151.150;2023-06-14T10:37:10;13.90;99.90
44047;DHT22;29713;-33.888;151.150;2023-06-14T10:39:42;13.80;99.90
44047;DHT22;29713;-33.888;151.150;2023-06-14T10:42:13;13.80;99.90
44047;DHT22;29713;-33.888;151.150;2023-06-14T10:44:51;13.70;99.90
44047;DHT22;29713;-33.888;151.150;2023-06-14T10:47:33;13.60;99.90
44047;DHT22;29713;-33.888;151.150;2023-06-14T10:50:09;13.70;99.90
44047;DHT22;29713;-33.888;151.150;2023-06-14T10:52:42;13.70;99.90
44047;DHT22;29713;-33.888;151.150;2023-06-14T10:55:19;13.70;99.90
44047;DHT22;29713;-33.888;151.150;2023-06-14T10:57:51;13.60;99.90
44047;DHT22;29713;-33.888;151.150;2023-06-14T11:00:21;13.60;99.90
44047;DHT22;29713;-33.888;151.150;2023-06-14T11:05:55;13.60;99.90
44047;DHT22;29713;-33.888;151.150;2023-06-14T11:08:39;13.60;99.90
44047;DHT22;29713;-33.888;151.150;2023-06-14T11:11:12;13.60;99.90
44047;DHT22;29713;-33.888;151.150;2023-06-14T11:13:46;13.50;99.90
44047;DHT22;29713;-33.888;151.150;2023-06-14T11:16:17;13.40;99.90
44047;DHT22;29713;-33.888;151.150;2023-06-14T11:18:48;13.40;99.90
44047;DHT22;29713;-33.888;151.150;2023-06-14T11:21:20;13.30;99.90
44047;DHT22;29713;-33.888;151.150;2023-06-14T11:23:53;13.30;99.90
44047;DHT22;29713;-33.888;151.150;2023-06-14T11:26:29;13.20;99.90
44047;DHT22;29713;-33.888;151.150;2023-06-14T11:29:05;13.10;99.90
44047;DHT22;29713;-33.888;151.150;2023-06-14T11:31:32;13.10;99.90
44047;DHT22;29713;-33.888;151.150;2023-06-14T11:34:00;13.10;99.90
44047;DHT22;29713;-33.888;151.150;2023-06-14T11:36:29;13.10;99.90
44047;DHT22;29713;-33.888;151.150;2023-06-14T11:39:01;13.00;99.90
44047;DHT22;29713;-33.888;151.150;2023-06-14T11:41:47;13.00;99.90
44047;DHT22;29713;-33.888;151.150;2023-06-14T11:44:15;13.00;99.90
44047;DHT22;29713;-33.888;151.150;2023-06-14T11:46:42;13.10;99.90
44047;DHT22;29713;-33.888;151.150;2023-06-14T11:49:09;13.10;99.90
44047;DHT22;29713;-33.888;151.150;2023-06-14T11:51:37;13.00;99.90
44047;DHT22;29713;-33.888;151.150;2023-06-14T11:54:06;13.00;99.90
44047;DHT22;29713;-33.888;151.150;2023-06-14T11:56:36;13.00;99.90
44047;DHT22;29713;-33.888;151.150;2023-06-14T11:59:04;13.00;99.90
44047;DHT22;29713;-33.888;151.150;2023-06-14T12:01:32;13.00;99.90
44047;DHT22;29713;-33.888;151.150;2023-06-14T12:04:03;13.00;99.90
44047;DHT22;29713;-33.888;151.150;2023-06-14T12:06:31;13.00;99.90
44047;DHT22;29713;-33.888;151.150;2023-06-14T12:09:07;13.00;99.90
44047;DHT22;29713;-33.888;151.150;2023-06-14T12:11:39;13.00;99.90
44047;DHT22;29713;-33.888;151.150;2023-06-14T12:14:08;13.00;99.90
44047;DHT22;29713;-33.888;151.150;2023-06-14T12:16:37;13.00;99.90
44047;DHT22;29713;-33.888;151.150;2023-06-14T12:19:14;13.00;99.90
44047;DHT22;29713;-33.888;151.150;2023-06-14T12:21:45;13.00;99.90
44047;DHT22;29713;-33.888;151.150;2023-06-14T12:24:28;12.90;99.90
44047;DHT22;29713;-33.888;151.150;2023-06-14T12:26:58;12.90;99.90
44047;DHT22;29713;-33.888;151.150;2023-06-14T12:29:31;12.90;99.90
44047;DHT22;29713;-33.888;151.150;2023-06-14T12:31:59;12.80;99.90
44047;DHT22;29713;-33.888;151.150;2023-06-14T12:34:27;12.80;99.90
44047;DHT22;29713;-33.888;151.150;2023-06-14T12:36:55;12.80;99.90
44047;DHT22;29713;-33.888;151.150;2023-06-14T12:39:23;12.80;99.90
44047;DHT22;29713;-33.888;151.150;2023-06-14T12:41:51;12.90;99.90
44047;DHT22;29713;-33.888;151.150;2023-06-14T12:44:18;12.90;99.90
44047;DHT22;29713;-33.888;151.150;2023-06-14T12:46:45;13.00;99.90
44047;DHT22;29713;-33.888;151.150;2023-06-14T12:49:14;12.90;99.90
44047;DHT22;29713;-33.888;151.150;2023-06-14T12:51:41;12.90;99.90
44047;DHT22;29713;-33.888;151.150;2023-06-14T12:54:09;12.90;99.90
44047;DHT22;29713;-33.888;151.150;2023-06-14T12:56:36;12.90;99.90
44047;DHT22;29713;-33.888;151.150;2023-06-14T12:59:03;12.90;99.90
44047;DHT22;29713;-33.888;151.150;2023-06-14T13:01:31;12.90;99.90
44047;DHT22;29713;-33.888;151.150;2023-06-14T13:03:58;12.80;99.90
44047;DHT22;29713;-33.888;151.150;2023-06-14T13:06:26;12.80;99.90
44047;DHT22;29713;-33.888;151.150;2023-06-14T13:08:53;12.80;99.90
44047;DHT22;29713;-33.888;151.150;2023-06-14T13:11:24;12.80;99.90
44047;DHT22;29713;-33.888;151.150;2023-06-14T13:13:51;12.80;99.90
44047;DHT22;29713;-33.888;151.150;2023-06-14T13:16:19;12.70;99.90
44047;DHT22;29713;-33.888;151.150;2023-06-14T13:18:46;12.80;99.90
44047;DHT22;29713;-33.888;151.150;2023-06-14T13:21:13;12.90;99.90
44047;DHT22;29713;-33.888;151.150;2023-06-14T13:23:41;12.90;99.90
44047;DHT22;29713;-33.888;151.150;2023-06-14T13:26:08;13.00;99.90
44047;DHT22;29713;-33.888;151.150;2023-06-14T13:28:39;13.00;99.90
44047;DHT22;29713;-33.888;151.150;2023-06-14T13:31:09;13.00;99.90
44047;DHT22;29713;-33.888;151.150;2023-06-14T13:33:37;12.80;99.90
44047;DHT22;29713;-33.888;151.150;2023-06-14T13:36:04;12.80;99.90
44047;DHT22;29713;-33.888;151.150;2023-06-14T13:38:31;12.70;99.90
44047;DHT22;29713;-33.888;151.150;2023-06-14T13:40:59;12.70;99.90
44047;DHT22;29713;-33.888;151.150;2023-06-14T13:43:26;12.60;99.90
44047;DHT22;29713;-33.888;151.150;2023-06-14T13:45:54;12.70;99.90
44047;DHT22;29713;-33.888;151.150;2023-06-14T13:48:22;12.70;99.90
44047;DHT22;29713;-33.888;151.150;2023-06-14T13:50:50;12.70;99.90
44047;DHT22;29713;-33.888;151.150;2023-06-14T13:53:17;12.60;99.90
44047;DHT22;29713;-33.888;151.150;2023-06-14T13:55:45;12.60;99.90
44047;DHT22;29713;-33.888;151.150;2023-06-14T13:58:12;12.50;99.90
44047;DHT22;29713;-33.888;151.150;2023-06-14T14:00:41;12.40;99.90
44047;DHT22;29713;-33.888;151.150;2023-06-14T14:03:08;12.40;99.90
44047;DHT22;29713;-33.888;151.150;2023-06-14T14:05:35;12.30;99.90
44047;DHT22;29713;-33.888;151.150;2023-06-14T14:08:03;12.30;99.90
44047;DHT22;29713;-33.888;151.150;2023-06-14T14:10:30;12.20;99.90
44047;DHT22;29713;-33.888;151.150;2023-06-14T14:12:57;12.20;99.90
44047;DHT22;29713;-33.888;151.150;2023-06-14T14:15:26;12.20;99.90
44047;DHT22;29713;-33.888;151.150;2023-06-14T14:17:56;12.30;99.90
44047;DHT22;29713;-33.888;151.150;2023-06-14T14:20:24;12.30;99.90
44047;DHT22;29713;-33.888;151.150;2023-06-14T14:22:51;12.30;99.90
44047;DHT22;29713;-33.888;151.150;2023-06-14T14:25:18;12.30;99.90
44047;DHT22;29713;-33.888;151.150;2023-06-14T14:27:46;12.40;99.90
44047;DHT22;29713;-33.888;151.150;2023-06-14T14:30:13;12.50;99.90
44047;DHT22;29713;-33.888;151.150;2023-06-14T14:32:43;12.50;99.90
44047;DHT22;29713;-33.888;151.150;2023-06-14T14:35:10;12.40;99.90
44047;DHT22;29713;-33.888;151.150;2023-06-14T14:37:38;12.30;99.90
44047;DHT22;29713;-33.888;151.150;2023-06-14T14:40:06;12.20;99.90
44047;DHT22;29713;-33.888;151.150;2023-06-14T14:42:35;12.10;99.90
44047;DHT22;29713;-33.888;151.150;2023-06-14T14:45:04;12.00;99.90
44047;DHT22;29713;-33.888;151.150;2023-06-14T14:47:31;11.90;99.90
44047;DHT22;29713;-33.888;151.150;2023-06-14T14:49:58;11.90;99.90
44047;DHT22;29713;-33.888;151.150;2023-06-14T14:52:26;11.90;99.90
44047;DHT22;29713;-33.888;151.150;2023-06-14T14:54:53;11.90;99.90
44047;DHT22;29713;-33.888;151.150;2023-06-14T14:57:21;11.90;99.90
44047;DHT22;29713;-33.888;151.150;2023-06-14T14:59:48;11.90;99.90
44047;DHT22;29713;-33.888;151.150;2023-06-14T15:02:16;11.90;99.90
44047;DHT22;29713;-33.888;151.150;2023-06-14T15:04:44;11.90;99.90
44047;DHT22;29713;-33.888;151.150;2023-06-14T15:07:11;11.90;99.90
44047;DHT22;29713;-33.888;151.150;2023-06-14T15:09:39;12.00;99.90
44047;DHT22;29713;-33.888;151.150;2023-06-14T15:12:07;12.00;99.90
44047;DHT22;29713;-33.888;151.150;2023-06-14T15:14:35;12.10;99.90